createdAt,value
2019-05-22T00:02:06.378Z,11.20
2019-05-22T00:04:48.131Z,11.07
2019-05-22T00:07:20.307Z,10.80
2019-05-22T00:09:55.388Z,10.57
2019-05-22T00:12:45.773Z,11.40
2019-05-22T00:15:05.220Z,11.20
2019-05-22T00:17:37.048Z,10.03
2019-05-22T00:20:10.723Z,10.20
2019-05-22T00:22:45.801Z,10.70
2019-05-22T00:25:21.172Z,9.57
2019-05-22T00:27:54.730Z,10.23
2019-05-22T00:30:27.720Z,9.07
2019-05-22T00:33:01.419Z,10.67
2019-05-22T00:35:33.928Z,10.60
2019-05-22T00:38:09.047Z,10.33
2019-05-22T00:40:47.926Z,10.30
2019-05-22T00:43:30.181Z,11.07
2019-05-22T00:46:05.323Z,10.67
2019-05-22T00:48:38.699Z,11.90
2019-05-22T00:51:27.546Z,11.80
2019-05-22T00:54:17.988Z,10.30
2019-05-22T00:57:11.862Z,9.98
2019-05-22T00:59:45.389Z,9.93
2019-05-22T01:02:21.783Z,9.90
2019-05-22T01:04:54.369Z,9.70
2019-05-22T01:07:36.396Z,9.07
2019-05-22T01:10:11.986Z,9.97
2019-05-22T01:12:46.833Z,9.03
2019-05-22T01:15:22.536Z,10.07
2019-05-22T01:17:56.573Z,9.00
2019-05-22T01:20:31.191Z,9.83
2019-05-22T01:23:03.766Z,9.63
2019-05-22T01:25:37.201Z,9.77
2019-05-22T01:28:13.493Z,10.37
2019-05-22T01:30:53.125Z,9.17
2019-05-22T01:33:31.648Z,8.97
2019-05-22T01:36:17.541Z,8.67
2019-05-22T01:38:49.489Z,8.90
2019-05-22T01:41:27.378Z,10.57
2019-05-22T01:44:00.378Z,9.70
2019-05-22T01:46:36.936Z,10.03
2019-05-22T01:49:13.276Z,9.83
2019-05-22T01:51:46.509Z,9.17
2019-05-22T01:54:18.881Z,9.20
2019-05-22T01:56:52.240Z,9.37
2019-05-22T01:59:23.902Z,8.50
2019-05-22T02:01:57.504Z,8.90
2019-05-22T02:04:33.557Z,8.23
2019-05-22T02:07:08.158Z,8.70
2019-05-22T02:09:40.952Z,8.70
2019-05-22T02:12:31.436Z,8.80
2019-05-22T02:15:03.013Z,8.88
2019-05-22T02:17:37.292Z,8.80
2019-05-22T02:20:11.481Z,9.53
2019-05-22T02:22:43.138Z,8.83
2019-05-22T02:25:15.665Z,8.60
2019-05-22T02:27:47.951Z,9.07
2019-05-22T02:30:23.335Z,9.40
2019-05-22T02:32:55.797Z,8.90
2019-05-22T02:35:27.813Z,9.60
2019-05-22T02:37:59.383Z,8.83
2019-05-22T02:40:35.402Z,8.87
2019-05-22T02:43:09.362Z,8.73
2019-05-22T02:45:41.549Z,8.40
2019-05-22T02:48:14.749Z,9.50
2019-05-22T02:50:48.445Z,9.20
2019-05-22T02:53:21.033Z,9.27
2019-05-22T02:55:53.538Z,9.33
2019-05-22T02:58:25.277Z,9.70
2019-05-22T03:01:03.015Z,9.80
2019-05-22T03:03:35.388Z,10.03
2019-05-22T03:06:13.470Z,10.30
2019-05-22T03:09:20.681Z,9.27
2019-05-22T03:12:08.983Z,8.83
2019-05-22T03:14:41.795Z,8.97
2019-05-22T03:17:31.017Z,9.33
2019-05-22T03:20:17.235Z,9.10
2019-05-22T03:23:37.996Z,9.63
2019-05-22T03:26:13.700Z,9.08
2019-05-22T03:28:47.232Z,8.53
2019-05-22T03:31:19.345Z,9.73
2019-05-22T03:33:51.061Z,9.10
2019-05-22T03:36:23.082Z,9.70
2019-05-22T03:38:55.320Z,9.70
2019-05-22T03:41:27.856Z,9.67
2019-05-22T03:44:01.421Z,10.03
2019-05-22T03:46:38.273Z,9.83
2019-05-22T03:49:28.035Z,10.70
2019-05-22T03:51:49.462Z,10.83
2019-05-22T03:54:22.410Z,9.90
2019-05-22T03:56:55.371Z,8.83
2019-05-22T03:59:27.873Z,10.10
2019-05-22T04:02:00.862Z,10.20
2019-05-22T04:04:41.220Z,10.40
2019-05-22T04:07:17.292Z,11.15
2019-05-22T04:09:52.205Z,10.73
2019-05-22T04:12:24.963Z,9.73
2019-05-22T04:14:57.195Z,10.13
2019-05-22T04:17:30.927Z,10.20
2019-05-22T04:20:03.886Z,9.97
2019-05-22T04:22:36.220Z,10.20
2019-05-22T04:25:09.384Z,9.20
2019-05-22T04:27:43.596Z,9.70
2019-05-22T04:30:18.594Z,9.60
2019-05-22T04:32:51.034Z,9.80
2019-05-22T04:35:24.075Z,9.53
2019-05-22T04:37:56.256Z,9.53
2019-05-22T04:40:59.887Z,10.00
2019-05-22T04:43:35.067Z,10.40
2019-05-22T04:46:09.847Z,9.60
2019-05-22T04:48:45.818Z,10.17
2019-05-22T04:51:31.299Z,9.40
2019-05-22T04:54:02.975Z,10.13
2019-05-22T04:56:34.716Z,9.20
2019-05-22T04:59:06.734Z,10.60
2019-05-22T05:01:38.854Z,10.00
2019-05-22T05:04:10.742Z,10.80
2019-05-22T05:06:42.739Z,10.30
2019-05-22T05:09:15.092Z,10.87
2019-05-22T05:11:47.330Z,9.53
2019-05-22T05:14:18.776Z,10.03
2019-05-22T05:16:50.889Z,9.13
2019-05-22T05:19:23.333Z,9.73
2019-05-22T05:21:54.932Z,8.80
2019-05-22T05:24:26.501Z,9.10
2019-05-22T05:27:01.820Z,9.40
2019-05-22T05:29:35.330Z,10.20
2019-05-22T05:32:08.399Z,8.90
2019-05-22T05:35:00.041Z,9.00
2019-05-22T05:37:31.630Z,8.17
2019-05-22T05:40:41.641Z,8.13
2019-05-22T05:43:16.306Z,9.23
2019-05-22T05:45:52.872Z,8.20
2019-05-22T05:48:27.450Z,9.53
2019-05-22T05:51:40.528Z,9.70
2019-05-22T05:54:15.316Z,8.33
2019-05-22T05:56:51.175Z,8.10
2019-05-22T05:59:26.034Z,9.23
2019-05-22T06:01:59.030Z,7.50
2019-05-22T06:04:39.594Z,8.70
2019-05-22T06:07:25.133Z,7.60
2019-05-22T06:11:06.600Z,8.33
2019-05-22T06:13:41.703Z,8.40
2019-05-22T06:17:18.748Z,9.70
2019-05-22T06:19:53.881Z,9.43
2019-05-22T06:22:25.464Z,9.17
2019-05-22T06:25:02.246Z,9.50
2019-05-22T06:27:42.320Z,9.17
2019-05-22T06:33:34.212Z,10.08
2019-05-22T06:36:13.028Z,9.17
2019-05-22T06:39:11.942Z,10.57
2019-05-22T06:41:45.460Z,10.10
2019-05-22T06:44:38.178Z,9.30
2019-05-22T06:47:22.218Z,10.50
2019-05-22T06:49:57.209Z,9.70
2019-05-22T06:52:29.690Z,11.03
2019-05-22T06:55:02.266Z,10.53
2019-05-22T06:57:35.011Z,10.80
2019-05-22T07:00:23.090Z,11.23
2019-05-22T07:02:56.045Z,11.30
2019-05-22T07:05:28.337Z,11.83
2019-05-22T07:08:00.172Z,11.00
2019-05-22T07:10:32.932Z,11.93
2019-05-22T07:13:05.298Z,12.30
2019-05-22T07:15:44.249Z,11.77
2019-05-22T07:18:22.785Z,11.00
2019-05-22T07:20:56.955Z,10.70
2019-05-22T07:23:30.683Z,10.03
2019-05-22T07:26:03.489Z,11.12
2019-05-22T07:28:35.327Z,11.43
2019-05-22T07:31:07.403Z,11.63
2019-05-22T07:33:39.530Z,10.90
2019-05-22T07:36:15.887Z,10.05
2019-05-22T07:38:44.510Z,10.08
2019-05-22T07:41:16.682Z,10.68
2019-05-22T07:43:48.515Z,11.05
2019-05-22T07:46:20.428Z,10.25
2019-05-22T07:48:51.952Z,10.68
2019-05-22T07:51:24.681Z,10.85
2019-05-22T07:53:56.887Z,11.43
2019-05-22T07:56:30.516Z,11.05
2019-05-22T07:59:02.939Z,10.55
2019-05-22T08:01:35.353Z,8.63
2019-05-22T08:04:07.958Z,8.88
2019-05-22T08:06:39.542Z,10.25
2019-05-22T08:09:12.705Z,9.15
2019-05-22T08:11:44.224Z,8.88
2019-05-22T08:14:17.503Z,9.53
2019-05-22T08:16:49.850Z,10.78
2019-05-22T08:19:27.488Z,10.88
2019-05-22T08:22:07.476Z,10.80
2019-05-22T08:24:33.560Z,10.38
2019-05-22T08:27:06.599Z,11.45
2019-05-22T08:29:38.469Z,10.70
2019-05-22T08:32:10.629Z,10.45
2019-05-22T08:34:42.941Z,12.20
2019-05-22T08:37:19.291Z,13.55
2019-05-22T08:39:51.660Z,14.75
2019-05-22T08:42:23.390Z,13.53
2019-05-22T08:44:54.905Z,11.93
2019-05-22T08:47:26.771Z,12.98
2019-05-22T08:49:58.281Z,14.68
2019-05-22T08:52:31.330Z,15.32
2019-05-22T08:55:05.369Z,15.05
2019-05-22T08:57:38.380Z,14.85
2019-05-22T09:00:12.546Z,13.43
2019-05-22T09:02:45.018Z,12.43
2019-05-22T09:05:20.736Z,11.90
2019-05-22T09:07:49.937Z,11.97
2019-05-22T09:10:25.807Z,13.10
2019-05-22T09:12:54.915Z,12.47
2019-05-22T09:15:28.077Z,12.45
2019-05-22T09:18:00.192Z,12.20
2019-05-22T09:20:48.188Z,11.90
2019-05-22T09:23:06.472Z,10.58
2019-05-22T09:25:38.614Z,11.68
2019-05-22T09:28:11.077Z,11.90
2019-05-22T09:30:43.034Z,9.18
2019-05-22T09:33:14.914Z,9.13
2019-05-22T09:35:47.016Z,9.75
2019-05-22T09:38:19.203Z,10.43
2019-05-22T09:40:53.440Z,10.45
2019-05-22T09:43:25.257Z,10.05
2019-05-22T09:45:57.171Z,10.82
2019-05-22T09:48:30.080Z,8.93
2019-05-22T09:51:02.248Z,9.43
2019-05-22T09:53:34.977Z,9.48
2019-05-22T09:56:06.809Z,11.00
2019-05-22T09:58:38.688Z,8.50
2019-05-22T10:01:12.141Z,8.48
2019-05-22T10:03:44.487Z,8.78
2019-05-22T10:06:16.200Z,9.13
2019-05-22T10:08:48.277Z,10.03
2019-05-22T10:11:20.901Z,11.00
2019-05-22T10:13:52.889Z,11.40
2019-05-22T10:16:25.268Z,11.20
2019-05-22T10:18:57.057Z,11.38
2019-05-22T10:21:28.711Z,11.08
2019-05-22T10:24:01.387Z,10.63
2019-05-22T10:26:33.011Z,11.53
2019-05-22T10:29:05.321Z,12.00
2019-05-22T10:31:37.244Z,12.73
2019-05-22T10:34:08.866Z,12.82
2019-05-22T10:36:43.081Z,14.15
2019-05-22T10:39:13.889Z,12.68
2019-05-22T10:41:45.367Z,13.35
2019-05-22T10:44:17.426Z,14.47
2019-05-22T10:46:49.534Z,14.60
2019-05-22T10:49:21.306Z,15.38
2019-05-22T10:51:53.895Z,16.75
2019-05-22T10:54:26.527Z,14.65
2019-05-22T10:56:58.018Z,18.12
2019-05-22T10:59:29.694Z,16.85
2019-05-22T11:02:01.583Z,15.45
2019-05-22T11:04:34.328Z,15.15
2019-05-22T11:07:06.826Z,16.07
2019-05-22T11:09:38.494Z,14.75
2019-05-22T11:12:10.626Z,15.75
2019-05-22T11:14:42.181Z,15.75
2019-05-22T11:17:13.732Z,17.10
2019-05-22T11:19:46.209Z,16.42
2019-05-22T11:22:18.478Z,13.22
2019-05-22T11:24:49.981Z,12.63
2019-05-22T11:27:22.020Z,12.88
2019-05-22T11:29:54.182Z,12.35
2019-05-22T11:32:26.028Z,12.73
2019-05-22T11:34:57.544Z,11.85
2019-05-22T11:37:31.472Z,9.88
2019-05-22T11:40:04.100Z,10.48
2019-05-22T11:42:36.124Z,14.00
2019-05-22T11:45:10.250Z,16.93
2019-05-22T11:47:43.409Z,20.27
2019-05-22T11:50:17.510Z,23.52
2019-05-22T11:52:49.050Z,22.87
2019-05-22T11:55:21.458Z,26.05
2019-05-22T11:57:53.362Z,29.80
2019-05-22T12:00:27.921Z,29.07
2019-05-22T12:03:01.686Z,26.37
2019-05-22T12:05:34.207Z,22.07
2019-05-22T12:08:06.592Z,24.05
2019-05-22T12:10:39.298Z,20.17
2019-05-22T12:13:12.449Z,19.73
2019-05-22T12:15:44.207Z,21.23
2019-05-22T12:18:16.745Z,19.67
2019-05-22T12:20:49.234Z,22.20
2019-05-22T12:23:20.993Z,21.27
2019-05-22T12:25:52.671Z,21.10
2019-05-22T12:28:24.856Z,19.98
2019-05-22T12:30:56.987Z,17.37
2019-05-22T12:33:29.275Z,19.27
2019-05-22T12:36:01.096Z,19.57
2019-05-22T12:38:32.956Z,17.98
2019-05-22T12:41:05.610Z,18.20
2019-05-22T12:43:37.290Z,19.90
2019-05-22T12:46:11.039Z,18.00
2019-05-22T12:48:44.044Z,18.00
2019-05-22T12:51:16.990Z,18.45
2019-05-22T12:53:49.708Z,19.75
2019-05-22T12:56:21.711Z,16.97
2019-05-22T12:58:55.078Z,19.30
2019-05-22T13:01:27.527Z,19.45
2019-05-22T13:04:00.840Z,19.55
2019-05-22T13:06:33.190Z,20.35
2019-05-22T13:09:09.303Z,20.23
2019-05-22T13:11:41.476Z,17.42
2019-05-22T13:14:13.208Z,14.83
2019-05-22T13:16:48.898Z,17.48
2019-05-22T13:19:19.645Z,17.95
2019-05-22T13:21:53.010Z,17.32
2019-05-22T13:24:26.256Z,17.73
2019-05-22T13:26:59.729Z,16.80
2019-05-22T13:29:32.791Z,20.02
2019-05-22T13:32:05.785Z,21.02
2019-05-22T13:34:38.462Z,15.30
2019-05-22T13:37:10.756Z,15.80
2019-05-22T13:39:42.879Z,15.00
2019-05-22T13:42:14.692Z,14.78
2019-05-22T13:44:48.363Z,11.48
2019-05-22T13:47:20.246Z,13.10
2019-05-22T13:49:52.487Z,10.38
2019-05-22T13:52:25.026Z,10.20
2019-05-22T13:54:58.609Z,11.00
2019-05-22T13:57:31.429Z,9.70
2019-05-22T14:00:02.992Z,10.72
2019-05-22T14:02:34.801Z,6.55
2019-05-22T14:05:08.852Z,7.83
2019-05-22T14:07:40.680Z,6.92
2019-05-22T14:10:13.236Z,4.97
2019-05-22T14:12:44.766Z,4.72
2019-05-22T14:15:17.010Z,6.20
2019-05-22T14:17:48.594Z,5.05
2019-05-22T14:20:21.181Z,4.15
2019-05-22T14:22:54.965Z,4.25
2019-05-22T14:25:26.656Z,4.15
2019-05-22T14:27:58.182Z,4.20
2019-05-22T14:30:30.958Z,4.47
2019-05-22T14:33:04.761Z,4.10
2019-05-22T14:35:48.127Z,3.98
2019-05-22T14:38:14.860Z,4.50
2019-05-22T14:40:46.859Z,4.15
2019-05-22T14:43:18.429Z,3.77
2019-05-22T14:45:51.442Z,4.17
2019-05-22T14:48:23.118Z,3.45
2019-05-22T14:50:54.934Z,3.62
2019-05-22T14:53:27.293Z,3.83
2019-05-22T14:56:00.228Z,3.85
2019-05-22T14:58:32.796Z,3.62
2019-05-22T15:01:04.837Z,3.80
2019-05-22T15:03:38.437Z,4.05
2019-05-22T15:06:12.999Z,4.20
2019-05-22T15:08:44.897Z,4.42
2019-05-22T15:11:18.035Z,4.25
2019-05-22T15:13:50.472Z,4.15
2019-05-22T15:16:22.631Z,4.42
2019-05-22T15:18:55.088Z,4.30
2019-05-22T15:21:28.371Z,4.25
2019-05-22T15:24:00.936Z,4.85
2019-05-22T15:26:32.953Z,5.05
2019-05-22T15:29:05.558Z,4.62
2019-05-22T15:31:38.035Z,5.35
2019-05-22T15:34:12.119Z,4.90
2019-05-22T15:36:44.507Z,5.60
2019-05-22T15:39:20.543Z,5.45
2019-05-22T15:41:53.830Z,5.78
2019-05-22T15:44:26.077Z,6.28
2019-05-22T15:46:57.969Z,6.42
2019-05-22T15:49:31.834Z,6.03
2019-05-22T15:52:07.580Z,7.08
2019-05-22T15:54:40.351Z,6.90
2019-05-22T15:57:12.973Z,7.28
2019-05-22T15:59:46.619Z,6.83
2019-05-22T16:02:22.033Z,6.58
2019-05-22T16:04:55.996Z,6.15
2019-05-22T16:07:27.985Z,6.17
2019-05-22T16:10:01.087Z,5.65
2019-05-22T16:12:33.859Z,6.70
2019-05-22T16:15:08.121Z,6.95
2019-05-22T16:17:41.609Z,6.58
2019-05-22T16:20:14.300Z,6.80
2019-05-22T16:22:45.961Z,6.95
2019-05-22T16:25:18.162Z,7.20
2019-05-22T16:27:50.217Z,7.25
2019-05-22T16:30:22.561Z,7.53
2019-05-22T16:32:57.910Z,7.90
2019-05-22T16:35:29.420Z,7.78
2019-05-22T16:38:01.451Z,7.62
2019-05-22T16:40:34.781Z,7.72
2019-05-22T16:43:06.797Z,8.50
2019-05-22T16:45:39.042Z,8.30
2019-05-22T16:48:26.023Z,9.48
2019-05-22T16:50:45.078Z,7.70
2019-05-22T16:53:21.895Z,8.93
2019-05-22T16:55:55.579Z,8.65
2019-05-22T16:58:28.075Z,11.83
2019-05-22T17:01:00.212Z,9.05
2019-05-22T17:03:32.176Z,8.98
2019-05-22T17:06:05.074Z,8.50
2019-05-22T17:08:37.815Z,10.13
2019-05-22T17:11:09.533Z,8.68
2019-05-22T17:13:41.369Z,8.58
2019-05-22T17:16:13.468Z,7.92
2019-05-22T17:18:48.055Z,7.62
2019-05-22T17:21:19.046Z,8.40
2019-05-22T17:23:53.600Z,8.15
2019-05-22T17:26:25.588Z,7.50
2019-05-22T17:28:57.598Z,6.55
2019-05-22T17:31:29.950Z,7.60
2019-05-22T17:34:03.793Z,7.25
2019-05-22T17:36:35.921Z,7.92
2019-05-22T17:39:11.257Z,7.95
2019-05-22T17:41:43.794Z,7.90
2019-05-22T17:44:15.611Z,7.37
2019-05-22T17:46:47.490Z,7.85
2019-05-22T17:49:20.247Z,7.78
2019-05-22T17:51:53.207Z,7.35
2019-05-22T17:54:25.113Z,6.90
2019-05-22T17:56:58.438Z,6.85
2019-05-22T17:59:30.815Z,6.83
2019-05-22T18:02:04.730Z,6.42
2019-05-22T18:04:36.316Z,6.75
2019-05-22T18:07:08.513Z,6.67
2019-05-22T18:09:40.863Z,6.35
2019-05-22T18:12:12.449Z,6.05
2019-05-22T18:14:44.427Z,5.12
2019-05-22T18:17:16.570Z,5.35
2019-05-22T18:19:48.758Z,6.35
2019-05-22T18:22:20.373Z,5.62
2019-05-22T18:24:52.554Z,5.70
2019-05-22T18:27:25.440Z,5.70
2019-05-22T18:29:57.162Z,7.00
2019-05-22T18:32:31.643Z,6.80
2019-05-22T18:35:05.387Z,6.12
2019-05-22T18:37:37.108Z,6.40
2019-05-22T18:40:09.691Z,6.42
2019-05-22T18:42:41.239Z,6.87
2019-05-22T18:45:14.713Z,6.30
2019-05-22T18:47:46.794Z,6.90
2019-05-22T18:50:19.582Z,6.95
2019-05-22T18:52:52.430Z,6.53
2019-05-22T18:55:25.816Z,6.55
2019-05-22T18:57:57.415Z,5.92
2019-05-22T19:00:32.860Z,6.87
2019-05-22T19:03:05.806Z,6.42
2019-05-22T19:05:38.450Z,6.35
2019-05-22T19:08:09.971Z,6.65
2019-05-22T19:10:41.666Z,6.33
2019-05-22T19:13:14.673Z,6.37
2019-05-22T19:15:47.142Z,6.58
2019-05-22T19:18:19.079Z,6.10
2019-05-22T19:20:50.749Z,6.47
2019-05-22T19:23:22.782Z,6.10
2019-05-22T19:25:54.618Z,6.20
2019-05-22T19:28:42.099Z,6.10
2019-05-22T19:30:59.915Z,5.92
2019-05-22T19:33:31.943Z,6.25
2019-05-22T19:36:03.867Z,6.35
2019-05-22T19:38:35.839Z,5.62
2019-05-22T19:41:07.850Z,5.97
2019-05-22T19:43:39.863Z,6.10
2019-05-22T19:46:11.916Z,6.05
2019-05-22T19:48:43.908Z,6.65
2019-05-22T19:51:18.504Z,5.90
2019-05-22T19:53:51.310Z,5.95
2019-05-22T19:56:24.142Z,5.53
2019-05-22T19:58:56.198Z,5.53
2019-05-22T20:01:28.463Z,5.33
2019-05-22T20:04:19.065Z,4.95
2019-05-22T20:06:51.848Z,5.25
2019-05-22T20:09:23.704Z,5.45
2019-05-22T20:11:56.356Z,5.45
2019-05-22T20:14:30.727Z,5.30
2019-05-22T20:17:05.813Z,5.45
2019-05-22T20:19:38.591Z,5.25
2019-05-22T20:22:11.181Z,5.15
2019-05-22T20:24:43.532Z,4.80
2019-05-22T20:27:15.634Z,4.90
2019-05-22T20:29:48.068Z,5.00
2019-05-22T20:32:19.750Z,5.10
2019-05-22T20:34:51.730Z,5.33
2019-05-22T20:37:23.524Z,5.30
2019-05-22T20:39:55.429Z,5.40
2019-05-22T20:42:29.319Z,4.77
2019-05-22T20:45:01.523Z,5.25
2019-05-22T20:47:33.685Z,5.22
2019-05-22T20:50:05.917Z,4.97
2019-05-22T20:52:38.583Z,4.95
2019-05-22T20:55:12.318Z,5.73
2019-05-22T20:57:45.165Z,5.53
2019-05-22T21:00:20.226Z,4.93
2019-05-22T21:03:01.265Z,4.90
2019-05-22T21:05:33.572Z,5.13
2019-05-22T21:08:11.164Z,5.47
2019-05-22T21:10:46.945Z,5.70
2019-05-22T21:13:19.972Z,5.83
2019-05-22T21:15:53.343Z,5.13
2019-05-22T21:18:44.988Z,4.87
2019-05-22T21:21:17.063Z,5.47
2019-05-22T21:23:49.827Z,5.37
2019-05-22T21:26:22.232Z,6.10
2019-05-22T21:28:54.340Z,6.17
2019-05-22T21:31:26.682Z,6.80
2019-05-22T21:33:59.022Z,6.10
2019-05-22T21:36:30.924Z,7.23
2019-05-22T21:39:04.394Z,6.67
2019-05-22T21:41:36.358Z,6.53
2019-05-22T21:44:09.956Z,6.67
2019-05-22T21:46:42.227Z,7.57
2019-05-22T21:49:16.253Z,7.33
2019-05-22T21:51:49.586Z,7.43
2019-05-22T21:54:21.352Z,7.70
2019-05-22T21:56:54.581Z,7.00
2019-05-22T21:59:26.727Z,7.37
2019-05-22T22:02:12.889Z,7.70
2019-05-22T22:04:45.678Z,7.37
2019-05-22T22:07:17.438Z,7.70
2019-05-22T22:09:50.347Z,8.23
2019-05-22T22:12:25.137Z,7.67
2019-05-22T22:14:56.984Z,8.10
2019-05-22T22:17:34.183Z,7.43
2019-05-22T22:20:08.038Z,7.90
2019-05-22T22:22:40.155Z,8.20
2019-05-22T22:25:13.933Z,7.80
2019-05-22T22:27:45.927Z,7.77
2019-05-22T22:30:27.034Z,7.60
2019-05-22T22:33:01.473Z,7.37
2019-05-22T22:35:33.923Z,7.73
2019-05-22T22:38:07.346Z,7.83
2019-05-22T22:40:43.382Z,7.60
2019-05-22T22:43:17.543Z,8.10
2019-05-22T22:45:59.251Z,7.90
2019-05-22T22:48:35.013Z,8.40
2019-05-22T22:51:10.081Z,8.77
2019-05-22T22:53:43.935Z,8.23
2019-05-22T22:56:18.735Z,8.33
2019-05-22T22:58:50.725Z,9.53
2019-05-22T23:01:29.035Z,8.47
2019-05-22T23:04:04.539Z,8.40
2019-05-22T23:06:37.052Z,7.83
2019-05-22T23:09:11.317Z,8.03
2019-05-22T23:11:43.653Z,8.13
2019-05-22T23:14:19.605Z,8.17
2019-05-22T23:16:51.672Z,8.67
2019-05-22T23:19:36.893Z,8.50
2019-05-22T23:22:28.860Z,8.07
2019-05-22T23:25:04.201Z,8.57
2019-05-22T23:27:39.086Z,8.60
2019-05-22T23:30:16.358Z,8.60
2019-05-22T23:32:47.969Z,9.20
2019-05-22T23:35:20.297Z,8.47
2019-05-22T23:37:52.666Z,8.47
2019-05-22T23:40:30.727Z,8.47
2019-05-22T23:43:04.829Z,9.03
2019-05-22T23:45:37.497Z,8.70
2019-05-22T23:48:17.357Z,8.57
2019-05-22T23:50:50.288Z,8.93
2019-05-22T23:53:24.109Z,8.53
2019-05-22T23:55:56.053Z,10.03
2019-05-22T23:58:29.440Z,9.80
